sensor_id;sensor_type;location;lat;lon;timestamp;temperature;humidity
43524;DHT22;29120;52.006;6.020;2022-12-20T00:00:42;9.10;99.90
43524;DHT22;29120;52.006;6.020;2022-12-20T00:03:07;9.10;99.90
43524;DHT22;29120;52.006;6.020;2022-12-20T00:05:36;9.10;99.90
43524;DHT22;29120;52.006;6.020;2022-12-20T00:08:02;9.10;99.90
43524;DHT22;29120;52.006;6.020;2022-12-20T00:10:27;9.10;99.90
43524;DHT22;29120;52.006;6.020;2022-12-20T00:12:53;9.10;99.90
43524;DHT22;29120;52.006;6.020;2022-12-20T00:15:19;9.00;99.90
43524;DHT22;29120;52.006;6.020;2022-12-20T00:17:44;9.00;99.90
43524;DHT22;29120;52.006;6.020;2022-12-20T00:20:10;9.00;99.90
43524;DHT22;29120;52.006;6.020;2022-12-20T00:22:36;9.00;99.90
43524;DHT22;29120;52.006;6.020;2022-12-20T00:25:02;9.00;99.90
43524;DHT22;29120;52.006;6.020;2022-12-20T00:27:27;9.00;99.90
43524;DHT22;29120;52.006;6.020;2022-12-20T00:29:53;9.10;99.90
43524;DHT22;29120;52.006;6.020;2022-12-20T00:32:18;9.10;99.90
43524;DHT22;29120;52.006;6.020;2022-12-20T00:34:44;9.20;99.90
43524;DHT22;29120;52.006;6.020;2022-12-20T00:37:09;9.30;99.90
43524;DHT22;29120;52.006;6.020;2022-12-20T00:39:34;9.30;99.90
43524;DHT22;29120;52.006;6.020;2022-12-20T00:42:00;9.40;99.90
43524;DHT22;29120;52.006;6.020;2022-12-20T00:44:25;9.50;99.90
43524;DHT22;29120;52.006;6.020;2022-12-20T00:46:52;9.60;99.90
43524;DHT22;29120;52.006;6.020;2022-12-20T00:49:18;9.60;99.90
43524;DHT22;29120;52.006;6.020;2022-12-20T00:51:43;9.70;99.90
43524;DHT22;29120;52.006;6.020;2022-12-20T00:54:09;9.70;99.90
43524;DHT22;29120;52.006;6.020;2022-12-20T00:56:34;9.80;99.90
43524;DHT22;29120;52.006;6.020;2022-12-20T00:59:00;9.90;99.90
43524;DHT22;29120;52.006;6.020;2022-12-20T01:01:26;9.90;99.90
43524;DHT22;29120;52.006;6.020;2022-12-20T01:03:52;9.90;99.90
43524;DHT22;29120;52.006;6.020;2022-12-20T01:06:18;10.00;99.90
43524;DHT22;29120;52.006;6.020;2022-12-20T01:08:43;10.00;99.90
43524;DHT22;29120;52.006;6.020;2022-12-20T01:11:22;10.10;99.90
43524;DHT22;29120;52.006;6.020;2022-12-20T01:13:49;10.10;99.90
43524;DHT22;29120;52.006;6.020;2022-12-20T01:16:31;10.20;99.90
43524;DHT22;29120;52.006;6.020;2022-12-20T01:18:57;10.20;99.90
43524;DHT22;29120;52.006;6.020;2022-12-20T01:21:23;10.20;99.90
43524;DHT22;29120;52.006;6.020;2022-12-20T01:23:49;10.30;99.90
43524;DHT22;29120;52.006;6.020;2022-12-20T01:26:16;10.20;99.90
43524;DHT22;29120;52.006;6.020;2022-12-20T01:28:43;10.30;99.90
43524;DHT22;29120;52.006;6.020;2022-12-20T01:31:09;10.30;99.90
43524;DHT22;29120;52.006;6.020;2022-12-20T01:33:35;10.30;99.90
43524;DHT22;29120;52.006;6.020;2022-12-20T01:36:01;10.30;99.90
43524;DHT22;29120;52.006;6.020;2022-12-20T01:38:27;10.30;99.90
43524;DHT22;29120;52.006;6.020;2022-12-20T01:40:53;10.40;99.90
43524;DHT22;29120;52.006;6.020;2022-12-20T01:43:19;10.40;99.90
43524;DHT22;29120;52.006;6.020;2022-12-20T01:45:45;10.30;99.90
43524;DHT22;29120;52.006;6.020;2022-12-20T01:48:15;10.30;99.90
43524;DHT22;29120;52.006;6.020;2022-12-20T01:50:43;10.30;99.90
43524;DHT22;29120;52.006;6.020;2022-12-20T01:53:09;10.30;99.90
43524;DHT22;29120;52.006;6.020;2022-12-20T01:55:35;10.30;99.90
43524;DHT22;29120;52.006;6.020;2022-12-20T01:58:02;10.30;99.90
43524;DHT22;29120;52.006;6.020;2022-12-20T02:00:29;10.20;99.90
43524;DHT22;29120;52.006;6.020;2022-12-20T02:02:54;10.20;99.90
43524;DHT22;29120;52.006;6.020;2022-12-20T02:05:22;10.10;99.90
43524;DHT22;29120;52.006;6.020;2022-12-20T02:07:49;10.10;99.90
43524;DHT22;29120;52.006;6.020;2022-12-20T02:10:16;10.10;99.90
43524;DHT22;29120;52.006;6.020;2022-12-20T02:12:42;10.10;99.90
43524;DHT22;29120;52.006;6.020;2022-12-20T02:15:16;10.10;99.90
43524;DHT22;29120;52.006;6.020;2022-12-20T02:17:53;10.10;99.90
43524;DHT22;29120;52.006;6.020;2022-12-20T02:20:35;10.10;99.90
43524;DHT22;29120;52.006;6.020;2022-12-20T02:30:23;10.00;99.90
43524;DHT22;29120;52.006;6.020;2022-12-20T02:32:53;10.00;99.90
43524;DHT22;29120;52.006;6.020;2022-12-20T02:35:22;10.00;99.90
43524;DHT22;29120;52.006;6.020;2022-12-20T02:37:55;9.90;99.90
43524;DHT22;29120;52.006;6.020;2022-12-20T02:40:22;9.90;99.90
43524;DHT22;29120;52.006;6.020;2022-12-20T02:42:50;9.90;99.90
43524;DHT22;29120;52.006;6.020;2022-12-20T02:45:16;9.90;99.90
43524;DHT22;29120;52.006;6.020;2022-12-20T02:47:47;9.80;99.90
43524;DHT22;29120;52.006;6.020;2022-12-20T02:50:13;9.80;99.90
43524;DHT22;29120;52.006;6.020;2022-12-20T02:52:41;9.80;99.90
43524;DHT22;29120;52.006;6.020;2022-12-20T02:55:06;9.80;99.90
43524;DHT22;29120;52.006;6.020;2022-12-20T02:57:50;9.80;99.90
43524;DHT22;29120;52.006;6.020;2022-12-20T03:00:17;9.90;99.90
43524;DHT22;29120;52.006;6.020;2022-12-20T03:02:43;9.80;99.90
43524;DHT22;29120;52.006;6.020;2022-12-20T03:05:28;9.90;99.90
43524;DHT22;29120;52.006;6.020;2022-12-20T03:07:54;9.90;99.90
43524;DHT22;29120;52.006;6.020;2022-12-20T03:10:20;9.80;99.90
43524;DHT22;29120;52.006;6.020;2022-12-20T03:12:46;9.90;99.90
43524;DHT22;29120;52.006;6.020;2022-12-20T03:15:11;9.90;99.90
43524;DHT22;29120;52.006;6.020;2022-12-20T03:17:37;9.80;99.90
43524;DHT22;29120;52.006;6.020;2022-12-20T03:20:03;9.90;99.90
43524;DHT22;29120;52.006;6.020;2022-12-20T03:22:30;9.90;99.90
43524;DHT22;29120;52.006;6.020;2022-12-20T03:24:56;9.90;99.90
43524;DHT22;29120;52.006;6.020;2022-12-20T03:27:22;9.90;99.90
43524;DHT22;29120;52.006;6.020;2022-12-20T03:29:47;9.90;99.90
43524;DHT22;29120;52.006;6.020;2022-12-20T03:32:13;9.90;99.90
43524;DHT22;29120;52.006;6.020;2022-12-20T03:34:38;9.90;99.90
43524;DHT22;29120;52.006;6.020;2022-12-20T03:37:04;9.80;99.90
43524;DHT22;29120;52.006;6.020;2022-12-20T03:39:29;9.90;99.90
43524;DHT22;29120;52.006;6.020;2022-12-20T03:41:55;9.80;99.90
43524;DHT22;29120;52.006;6.020;2022-12-20T03:44:20;9.80;99.90
43524;DHT22;29120;52.006;6.020;2022-12-20T03:46:46;9.80;99.90
43524;DHT22;29120;52.006;6.020;2022-12-20T03:49:11;9.80;99.90
43524;DHT22;29120;52.006;6.020;2022-12-20T03:51:36;9.80;99.90
43524;DHT22;29120;52.006;6.020;2022-12-20T03:54:02;9.90;99.90
43524;DHT22;29120;52.006;6.020;2022-12-20T03:56:28;9.90;99.90
43524;DHT22;29120;52.006;6.020;2022-12-20T03:58:53;9.90;99.90
43524;DHT22;29120;52.006;6.020;2022-12-20T04:01:20;9.90;99.90
43524;DHT22;29120;52.006;6.020;2022-12-20T04:03:46;9.90;99.90
43524;DHT22;29120;52.006;6.020;2022-12-20T04:06:11;9.90;99.90
43524;DHT22;29120;52.006;6.020;2022-12-20T04:08:37;9.90;99.90
43524;DHT22;29120;52.006;6.020;2022-12-20T04:11:02;9.90;99.90
43524;DHT22;29120;52.006;6.020;2022-12-20T04:13:40;10.00;99.90
43524;DHT22;29120;52.006;6.020;2022-12-20T04:16:06;10.00;99.90
43524;DHT22;29120;52.006;6.020;2022-12-20T04:18:31;10.00;99.90
43524;DHT22;29120;52.006;6.020;2022-12-20T04:20:58;10.00;99.90
43524;DHT22;29120;52.006;6.020;2022-12-20T04:23:24;10.10;99.90
43524;DHT22;29120;52.006;6.020;2022-12-20T04:25:49;10.10;99.90
43524;DHT22;29120;52.006;6.020;2022-12-20T04:28:15;10.10;99.90
43524;DHT22;29120;52.006;6.020;2022-12-20T04:30:40;10.10;99.90
43524;DHT22;29120;52.006;6.020;2022-12-20T04:33:06;10.20;99.90
43524;DHT22;29120;52.006;6.020;2022-12-20T04:35:31;10.20;99.90
43524;DHT22;29120;52.006;6.020;2022-12-20T04:37:57;10.20;99.90
43524;DHT22;29120;52.006;6.020;2022-12-20T04:40:22;10.20;99.90
43524;DHT22;29120;52.006;6.020;2022-12-20T04:42:48;10.30;99.90
43524;DHT22;29120;52.006;6.020;2022-12-20T04:45:13;10.30;99.90
43524;DHT22;29120;52.006;6.020;2022-12-20T04:47:38;10.30;99.90
43524;DHT22;29120;52.006;6.020;2022-12-20T04:50:05;10.30;99.90
43524;DHT22;29120;52.006;6.020;2022-12-20T04:52:30;10.40;99.90
43524;DHT22;29120;52.006;6.020;2022-12-20T04:55:15;10.30;99.90
43524;DHT22;29120;52.006;6.020;2022-12-20T04:57:40;10.40;99.90
43524;DHT22;29120;52.006;6.020;2022-12-20T05:00:06;10.40;99.90
43524;DHT22;29120;52.006;6.020;2022-12-20T05:02:32;10.40;99.90
43524;DHT22;29120;52.006;6.020;2022-12-20T05:04:57;10.40;99.90
43524;DHT22;29120;52.006;6.020;2022-12-20T05:07:23;10.50;99.90
43524;DHT22;29120;52.006;6.020;2022-12-20T05:09:48;10.40;99.90
43524;DHT22;29120;52.006;6.020;2022-12-20T05:12:13;10.50;99.90
43524;DHT22;29120;52.006;6.020;2022-12-20T05:14:39;10.50;99.90
43524;DHT22;29120;52.006;6.020;2022-12-20T05:17:04;10.50;99.90
43524;DHT22;29120;52.006;6.020;2022-12-20T05:19:30;10.40;99.90
43524;DHT22;29120;52.006;6.020;2022-12-20T05:21:55;10.40;99.90
43524;DHT22;29120;52.006;6.020;2022-12-20T05:24:39;10.40;99.90
43524;DHT22;29120;52.006;6.020;2022-12-20T05:27:24;10.40;99.90
43524;DHT22;29120;52.006;6.020;2022-12-20T05:29:49;10.40;99.90
43524;DHT22;29120;52.006;6.020;2022-12-20T05:32:15;10.40;99.90
43524;DHT22;29120;52.006;6.020;2022-12-20T05:34:40;10.40;99.90
43524;DHT22;29120;52.006;6.020;2022-12-20T05:37:06;10.50;99.90
43524;DHT22;29120;52.006;6.020;2022-12-20T05:39:31;10.50;99.90
43524;DHT22;29120;52.006;6.020;2022-12-20T05:41:58;10.50;99.90
43524;DHT22;29120;52.006;6.020;2022-12-20T05:44:23;10.50;99.90
43524;DHT22;29120;52.006;6.020;2022-12-20T05:46:49;10.50;99.90
43524;DHT22;29120;52.006;6.020;2022-12-20T05:49:14;10.50;99.90
43524;DHT22;29120;52.006;6.020;2022-12-20T05:51:40;10.50;99.90
43524;DHT22;29120;52.006;6.020;2022-12-20T05:54:05;10.50;99.90
43524;DHT22;29120;52.006;6.020;2022-12-20T05:56:31;10.50;99.90
43524;DHT22;29120;52.006;6.020;2022-12-20T05:58:56;10.50;99.90
43524;DHT22;29120;52.006;6.020;2022-12-20T06:01:23;10.50;99.90
43524;DHT22;29120;52.006;6.020;2022-12-20T06:03:48;10.50;99.90
43524;DHT22;29120;52.006;6.020;2022-12-20T06:06:15;10.50;99.90
43524;DHT22;29120;52.006;6.020;2022-12-20T06:08:41;10.50;99.90
43524;DHT22;29120;52.006;6.020;2022-12-20T06:11:06;10.50;99.90
43524;DHT22;29120;52.006;6.020;2022-12-20T06:13:31;10.50;99.90
43524;DHT22;29120;52.006;6.020;2022-12-20T06:15:57;10.50;99.90
43524;DHT22;29120;52.006;6.020;2022-12-20T06:18:24;10.50;99.90
43524;DHT22;29120;52.006;6.020;2022-12-20T06:20:50;10.50;99.90
43524;DHT22;29120;52.006;6.020;2022-12-20T06:23:16;10.50;99.90
43524;DHT22;29120;52.006;6.020;2022-12-20T06:25:42;10.50;99.90
43524;DHT22;29120;52.006;6.020;2022-12-20T06:28:08;10.40;99.90
43524;DHT22;29120;52.006;6.020;2022-12-20T06:30:33;10.40;99.90
43524;DHT22;29120;52.006;6.020;2022-12-20T06:32:59;10.40;99.90
43524;DHT22;29120;52.006;6.020;2022-12-20T06:35:25;10.40;99.90
43524;DHT22;29120;52.006;6.020;2022-12-20T06:37:50;10.50;99.90
43524;DHT22;29120;52.006;6.020;2022-12-20T06:40:16;10.50;99.90
43524;DHT22;29120;52.006;6.020;2022-12-20T06:42:41;10.50;99.90
43524;DHT22;29120;52.006;6.020;2022-12-20T06:45:07;10.50;99.90
43524;DHT22;29120;52.006;6.020;2022-12-20T06:47:33;10.50;99.90
43524;DHT22;29120;52.006;6.020;2022-12-20T06:49:58;10.60;99.90
43524;DHT22;29120;52.006;6.020;2022-12-20T06:52:24;10.60;99.90
43524;DHT22;29120;52.006;6.020;2022-12-20T06:54:49;10.60;99.90
43524;DHT22;29120;52.006;6.020;2022-12-20T06:57:15;10.60;99.90
43524;DHT22;29120;52.006;6.020;2022-12-20T06:59:40;10.60;99.90
43524;DHT22;29120;52.006;6.020;2022-12-20T07:02:06;10.70;99.90
43524;DHT22;29120;52.006;6.020;2022-12-20T07:04:31;10.70;99.90
43524;DHT22;29120;52.006;6.020;2022-12-20T07:06:57;10.70;99.90
43524;DHT22;29120;52.006;6.020;2022-12-20T07:09:22;10.70;99.90
43524;DHT22;29120;52.006;6.020;2022-12-20T07:11:48;10.70;99.90
43524;DHT22;29120;52.006;6.020;2022-12-20T07:14:13;10.70;99.90
43524;DHT22;29120;52.006;6.020;2022-12-20T07:16:39;10.80;99.90
43524;DHT22;29120;52.006;6.020;2022-12-20T07:19:10;10.80;99.90
43524;DHT22;29120;52.006;6.020;2022-12-20T07:21:36;10.70;99.90
43524;DHT22;29120;52.006;6.020;2022-12-20T07:24:02;10.70;99.90
43524;DHT22;29120;52.006;6.020;2022-12-20T07:26:27;10.60;99.90
43524;DHT22;29120;52.006;6.020;2022-12-20T07:28:53;10.70;99.90
43524;DHT22;29120;52.006;6.020;2022-12-20T07:31:19;10.70;99.90
43524;DHT22;29120;52.006;6.020;2022-12-20T07:33:44;10.70;99.90
43524;DHT22;29120;52.006;6.020;2022-12-20T07:36:11;10.70;99.90
43524;DHT22;29120;52.006;6.020;2022-12-20T07:38:37;10.70;99.90
43524;DHT22;29120;52.006;6.020;2022-12-20T07:41:06;10.70;99.90
43524;DHT22;29120;52.006;6.020;2022-12-20T07:43:32;10.70;99.90
43524;DHT22;29120;52.006;6.020;2022-12-20T07:45:57;10.60;99.90
43524;DHT22;29120;52.006;6.020;2022-12-20T07:48:23;10.70;99.90
43524;DHT22;29120;52.006;6.020;2022-12-20T07:50:52;10.70;99.90
43524;DHT22;29120;52.006;6.020;2022-12-20T07:53:19;10.70;99.90
43524;DHT22;29120;52.006;6.020;2022-12-20T07:55:45;10.70;99.90
43524;DHT22;29120;52.006;6.020;2022-12-20T07:58:11;10.70;99.90
43524;DHT22;29120;52.006;6.020;2022-12-20T08:00:38;10.80;99.90
43524;DHT22;29120;52.006;6.020;2022-12-20T08:05:36;10.80;99.90
43524;DHT22;29120;52.006;6.020;2022-12-20T08:08:03;10.90;99.90
43524;DHT22;29120;52.006;6.020;2022-12-20T08:10:28;10.90;99.90
43524;DHT22;29120;52.006;6.020;2022-12-20T08:12:54;10.90;99.90
43524;DHT22;29120;52.006;6.020;2022-12-20T08:15:20;10.90;99.90
43524;DHT22;29120;52.006;6.020;2022-12-20T08:17:47;10.90;99.90
43524;DHT22;29120;52.006;6.020;2022-12-20T08:20:13;10.90;99.90
43524;DHT22;29120;52.006;6.020;2022-12-20T08:22:39;10.90;99.90
43524;DHT22;29120;52.006;6.020;2022-12-20T08:25:04;10.90;99.90
43524;DHT22;29120;52.006;6.020;2022-12-20T08:27:30;10.90;99.90
43524;DHT22;29120;52.006;6.020;2022-12-20T08:29:55;10.90;99.90
43524;DHT22;29120;52.006;6.020;2022-12-20T08:32:21;10.90;99.90
43524;DHT22;29120;52.006;6.020;2022-12-20T08:34:46;10.80;99.90
43524;DHT22;29120;52.006;6.020;2022-12-20T08:37:14;10.90;99.90
43524;DHT22;29120;52.006;6.020;2022-12-20T08:39:40;10.90;99.90
43524;DHT22;29120;52.006;6.020;2022-12-20T08:42:05;10.90;99.90
43524;DHT22;29120;52.006;6.020;2022-12-20T08:44:31;10.90;99.90
43524;DHT22;29120;52.006;6.020;2022-12-20T08:46:56;10.90;99.90
43524;DHT22;29120;52.006;6.020;2022-12-20T08:49:22;10.80;99.90
43524;DHT22;29120;52.006;6.020;2022-12-20T08:51:47;10.90;99.90
43524;DHT22;29120;52.006;6.020;2022-12-20T08:54:13;10.90;99.90
43524;DHT22;29120;52.006;6.020;2022-12-20T08:56:38;10.90;99.90
43524;DHT22;29120;52.006;6.020;2022-12-20T08:59:04;10.90;99.90
43524;DHT22;29120;52.006;6.020;2022-12-20T09:01:30;11.00;99.90
43524;DHT22;29120;52.006;6.020;2022-12-20T09:03:57;11.00;99.90
43524;DHT22;29120;52.006;6.020;2022-12-20T09:06:23;11.00;99.90
43524;DHT22;29120;52.006;6.020;2022-12-20T09:08:48;11.00;99.90
43524;DHT22;29120;52.006;6.020;2022-12-20T09:11:15;11.00;99.90
43524;DHT22;29120;52.006;6.020;2022-12-20T09:13:42;11.00;99.90
43524;DHT22;29120;52.006;6.020;2022-12-20T09:16:09;11.00;99.90
43524;DHT22;29120;52.006;6.020;2022-12-20T09:18:34;10.90;99.90
43524;DHT22;29120;52.006;6.020;2022-12-20T09:21:00;10.80;99.90
43524;DHT22;29120;52.006;6.020;2022-12-20T09:23:27;10.70;99.90
43524;DHT22;29120;52.006;6.020;2022-12-20T09:25:53;10.60;99.90
43524;DHT22;29120;52.006;6.020;2022-12-20T09:28:20;10.60;99.90
43524;DHT22;29120;52.006;6.020;2022-12-20T09:30:45;10.50;99.90
43524;DHT22;29120;52.006;6.020;2022-12-20T09:33:11;10.50;99.90
43524;DHT22;29120;52.006;6.020;2022-12-20T09:35:42;10.40;99.90
43524;DHT22;29120;52.006;6.020;2022-12-20T09:38:08;10.40;99.90
43524;DHT22;29120;52.006;6.020;2022-12-20T09:40:33;10.40;99.90
43524;DHT22;29120;52.006;6.020;2022-12-20T09:43:01;10.40;99.90
43524;DHT22;29120;52.006;6.020;2022-12-20T09:45:28;10.40;99.90
43524;DHT22;29120;52.006;6.020;2022-12-20T09:47:55;10.40;99.90
43524;DHT22;29120;52.006;6.020;2022-12-20T09:50:24;10.40;99.90
43524;DHT22;29120;52.006;6.020;2022-12-20T09:52:58;10.40;99.90
43524;DHT22;29120;52.006;6.020;2022-12-20T09:55:34;10.40;99.90
43524;DHT22;29120;52.006;6.020;2022-12-20T10:00:33;10.50;99.90
43524;DHT22;29120;52.006;6.020;2022-12-20T10:03:01;10.50;99.90
43524;DHT22;29120;52.006;6.020;2022-12-20T10:05:38;10.60;99.90
43524;DHT22;29120;52.006;6.020;2022-12-20T10:08:22;10.60;99.90
43524;DHT22;29120;52.006;6.020;2022-12-20T10:16:28;10.60;99.90
43524;DHT22;29120;52.006;6.020;2022-12-20T10:19:13;10.60;99.90
43524;DHT22;29120;52.006;6.020;2022-12-20T10:21:46;10.60;99.90
43524;DHT22;29120;52.006;6.020;2022-12-20T10:24:25;10.60;99.90
43524;DHT22;29120;52.006;6.020;2022-12-20T10:26:51;10.60;99.90
43524;DHT22;29120;52.006;6.020;2022-12-20T10:29:17;10.60;99.90
43524;DHT22;29120;52.006;6.020;2022-12-20T10:31:43;10.60;99.90
43524;DHT22;29120;52.006;6.020;2022-12-20T10:34:09;10.70;99.90
43524;DHT22;29120;52.006;6.020;2022-12-20T10:36:34;10.70;99.90
43524;DHT22;29120;52.006;6.020;2022-12-20T10:39:01;10.70;99.90
43524;DHT22;29120;52.006;6.020;2022-12-20T10:41:28;10.70;99.90
43524;DHT22;29120;52.006;6.020;2022-12-20T10:46:27;10.60;99.90
43524;DHT22;29120;52.006;6.020;2022-12-20T10:48:59;10.60;99.90
43524;DHT22;29120;52.006;6.020;2022-12-20T10:51:50;10.60;99.90
43524;DHT22;29120;52.006;6.020;2022-12-20T10:54:23;10.60;99.90
43524;DHT22;29120;52.006;6.020;2022-12-20T10:56:59;10.60;99.90
43524;DHT22;29120;52.006;6.020;2022-12-20T10:59:30;10.60;99.90
43524;DHT22;29120;52.006;6.020;2022-12-20T11:01:57;10.60;99.90
43524;DHT22;29120;52.006;6.020;2022-12-20T11:06:50;10.60;99.90
43524;DHT22;29120;52.006;6.020;2022-12-20T11:12:06;10.60;99.90
43524;DHT22;29120;52.006;6.020;2022-12-20T11:14:35;10.60;99.90
43524;DHT22;29120;52.006;6.020;2022-12-20T11:25:17;10.60;99.90
43524;DHT22;29120;52.006;6.020;2022-12-20T11:30:33;10.60;99.90
43524;DHT22;29120;52.006;6.020;2022-12-20T11:35:38;10.70;99.90
43524;DHT22;29120;52.006;6.020;2022-12-20T11:38:19;10.70;99.90
43524;DHT22;29120;52.006;6.020;2022-12-20T11:40:53;10.70;99.90
43524;DHT22;29120;52.006;6.020;2022-12-20T11:51:03;10.70;99.90
43524;DHT22;29120;52.006;6.020;2022-12-20T11:55:56;10.70;99.90
43524;DHT22;29120;52.006;6.020;2022-12-20T11:58:43;10.70;99.90
43524;DHT22;29120;52.006;6.020;2022-12-20T12:01:12;10.80;99.90
43524;DHT22;29120;52.006;6.020;2022-12-20T12:03:40;10.70;99.90
43524;DHT22;29120;52.006;6.020;2022-12-20T12:06:16;10.80;99.90
43524;DHT22;29120;52.006;6.020;2022-12-20T12:08:57;10.80;99.90
43524;DHT22;29120;52.006;6.020;2022-12-20T12:11:29;10.80;99.90
43524;DHT22;29120;52.006;6.020;2022-12-20T12:13:56;10.80;99.90
43524;DHT22;29120;52.006;6.020;2022-12-20T12:16:26;10.80;99.90
43524;DHT22;29120;52.006;6.020;2022-12-20T12:18:51;10.80;99.90
43524;DHT22;29120;52.006;6.020;2022-12-20T12:26:17;10.80;99.90
43524;DHT22;29120;52.006;6.020;2022-12-20T12:28:45;10.80;99.90
43524;DHT22;29120;52.006;6.020;2022-12-20T12:31:13;10.90;99.90
43524;DHT22;29120;52.006;6.020;2022-12-20T12:33:42;10.80;99.90
43524;DHT22;29120;52.006;6.020;2022-12-20T12:36:28;10.90;99.90
43524;DHT22;29120;52.006;6.020;2022-12-20T12:39:09;10.80;99.90
43524;DHT22;29120;52.006;6.020;2022-12-20T12:46:54;10.80;99.90
43524;DHT22;29120;52.006;6.020;2022-12-20T12:49:23;10.80;99.90
43524;DHT22;29120;52.006;6.020;2022-12-20T12:51:55;10.80;99.90
43524;DHT22;29120;52.006;6.020;2022-12-20T12:54:23;10.80;99.90
43524;DHT22;29120;52.006;6.020;2022-12-20T12:56:51;10.80;99.90
43524;DHT22;29120;52.006;6.020;2022-12-20T12:59:21;10.80;99.90
43524;DHT22;29120;52.006;6.020;2022-12-20T13:01:49;10.80;99.90
43524;DHT22;29120;52.006;6.020;2022-12-20T13:04:25;10.80;99.90
43524;DHT22;29120;52.006;6.020;2022-12-20T13:06:56;10.90;99.90
43524;DHT22;29120;52.006;6.020;2022-12-20T13:11:56;10.90;99.90
43524;DHT22;29120;52.006;6.020;2022-12-20T13:19:37;10.90;99.90
43524;DHT22;29120;52.006;6.020;2022-12-20T13:24:38;10.90;99.90
43524;DHT22;29120;52.006;6.020;2022-12-20T13:27:21;10.90;99.90
43524;DHT22;29120;52.006;6.020;2022-12-20T13:40:24;10.90;99.90
43524;DHT22;29120;52.006;6.020;2022-12-20T13:42:50;10.90;99.90
43524;DHT22;29120;52.006;6.020;2022-12-20T13:45:18;10.90;99.90
43524;DHT22;29120;52.006;6.020;2022-12-20T13:47:57;10.90;99.90
43524;DHT22;29120;52.006;6.020;2022-12-20T13:50:57;10.90;99.90
43524;DHT22;29120;52.006;6.020;2022-12-20T13:53:20;10.90;99.90
43524;DHT22;29120;52.006;6.020;2022-12-20T13:55:47;10.90;99.90
43524;DHT22;29120;52.006;6.020;2022-12-20T13:58:27;10.90;99.90
43524;DHT22;29120;52.006;6.020;2022-12-20T14:01:05;10.90;99.90
43524;DHT22;29120;52.006;6.020;2022-12-20T14:03:31;10.90;99.90
43524;DHT22;29120;52.006;6.020;2022-12-20T14:05:58;10.90;99.90
43524;DHT22;29120;52.006;6.020;2022-12-20T14:08:29;10.90;99.90
43524;DHT22;29120;52.006;6.020;2022-12-20T14:11:05;10.90;99.90
43524;DHT22;29120;52.006;6.020;2022-12-20T14:13:31;10.90;99.90
43524;DHT22;29120;52.006;6.020;2022-12-20T14:15:56;10.90;99.90
43524;DHT22;29120;52.006;6.020;2022-12-20T14:18:31;10.90;99.90
43524;DHT22;29120;52.006;6.020;2022-12-20T14:21:00;10.90;99.90
43524;DHT22;29120;52.006;6.020;2022-12-20T14:23:32;10.90;99.90
43524;DHT22;29120;52.006;6.020;2022-12-20T14:26:00;10.90;99.90
43524;DHT22;29120;52.006;6.020;2022-12-20T14:28:44;10.90;99.90
43524;DHT22;29120;52.006;6.020;2022-12-20T14:31:24;10.90;99.90
43524;DHT22;29120;52.006;6.020;2022-12-20T14:33:50;10.90;99.90
43524;DHT22;29120;52.006;6.020;2022-12-20T14:38:43;10.90;99.90
43524;DHT22;29120;52.006;6.020;2022-12-20T14:43:55;10.90;99.90
43524;DHT22;29120;52.006;6.020;2022-12-20T14:46:22;10.90;99.90
43524;DHT22;29120;52.006;6.020;2022-12-20T14:48:47;10.90;99.90
43524;DHT22;29120;52.006;6.020;2022-12-20T14:51:20;10.90;99.90
43524;DHT22;29120;52.006;6.020;2022-12-20T14:53:46;10.90;99.90
43524;DHT22;29120;52.006;6.020;2022-12-20T14:56:13;10.90;99.90
43524;DHT22;29120;52.006;6.020;2022-12-20T14:58:41;10.90;99.90
43524;DHT22;29120;52.006;6.020;2022-12-20T15:01:20;10.90;99.90
43524;DHT22;29120;52.006;6.020;2022-12-20T15:03:52;10.90;99.90
43524;DHT22;29120;52.006;6.020;2022-12-20T15:09:03;10.90;99.90
43524;DHT22;29120;52.006;6.020;2022-12-20T15:11:29;10.90;99.90
43524;DHT22;29120;52.006;6.020;2022-12-20T15:13:55;10.90;99.90
43524;DHT22;29120;52.006;6.020;2022-12-20T15:16:22;10.80;99.90
43524;DHT22;29120;52.006;6.020;2022-12-20T15:18:52;10.90;99.90
43524;DHT22;29120;52.006;6.020;2022-12-20T15:23:50;10.80;99.90
43524;DHT22;29120;52.006;6.020;2022-12-20T15:26:17;10.90;99.90
43524;DHT22;29120;52.006;6.020;2022-12-20T15:28:42;10.80;99.90
43524;DHT22;29120;52.006;6.020;2022-12-20T15:31:09;10.80;99.90
43524;DHT22;29120;52.006;6.020;2022-12-20T15:33:36;10.80;99.90
43524;DHT22;29120;52.006;6.020;2022-12-20T15:36:02;10.80;99.90
43524;DHT22;29120;52.006;6.020;2022-12-20T15:38:28;10.80;99.90
43524;DHT22;29120;52.006;6.020;2022-12-20T15:40:54;10.80;99.90
43524;DHT22;29120;52.006;6.020;2022-12-20T15:43:20;10.80;99.90
43524;DHT22;29120;52.006;6.020;2022-12-20T15:45:47;10.80;99.90
43524;DHT22;29120;52.006;6.020;2022-12-20T15:48:18;10.80;99.90
43524;DHT22;29120;52.006;6.020;2022-12-20T15:50:48;10.80;99.90
43524;DHT22;29120;52.006;6.020;2022-12-20T15:53:15;10.80;99.90
43524;DHT22;29120;52.006;6.020;2022-12-20T15:55:41;10.80;99.90
43524;DHT22;29120;52.006;6.020;2022-12-20T15:58:07;10.80;99.90
43524;DHT22;29120;52.006;6.020;2022-12-20T16:00:33;10.80;99.90
43524;DHT22;29120;52.006;6.020;2022-12-20T16:02:58;10.80;99.90
43524;DHT22;29120;52.006;6.020;2022-12-20T16:05:25;10.70;99.90
43524;DHT22;29120;52.006;6.020;2022-12-20T16:07:51;10.70;99.90
43524;DHT22;29120;52.006;6.020;2022-12-20T16:10:16;10.70;99.90
43524;DHT22;29120;52.006;6.020;2022-12-20T16:12:42;10.70;99.90
43524;DHT22;29120;52.006;6.020;2022-12-20T16:15:12;10.70;99.90
43524;DHT22;29120;52.006;6.020;2022-12-20T16:17:42;10.80;99.90
43524;DHT22;29120;52.006;6.020;2022-12-20T16:20:08;10.70;99.90
43524;DHT22;29120;52.006;6.020;2022-12-20T16:22:34;10.70;99.90
43524;DHT22;29120;52.006;6.020;2022-12-20T16:24:59;10.70;99.90
43524;DHT22;29120;52.006;6.020;2022-12-20T16:27:25;10.70;99.90
43524;DHT22;29120;52.006;6.020;2022-12-20T16:29:51;10.70;99.90
43524;DHT22;29120;52.006;6.020;2022-12-20T16:32:18;10.70;99.90
43524;DHT22;29120;52.006;6.020;2022-12-20T16:34:43;10.60;99.90
43524;DHT22;29120;52.006;6.020;2022-12-20T16:37:09;10.60;99.90
43524;DHT22;29120;52.006;6.020;2022-12-20T16:39:38;10.70;99.90
43524;DHT22;29120;52.006;6.020;2022-12-20T16:42:08;10.60;99.90
43524;DHT22;29120;52.006;6.020;2022-12-20T16:44:34;10.60;99.90
43524;DHT22;29120;52.006;6.020;2022-12-20T16:46:59;10.60;99.90
43524;DHT22;29120;52.006;6.020;2022-12-20T16:49:25;10.60;99.90
43524;DHT22;29120;52.006;6.020;2022-12-20T16:51:50;10.60;99.90
43524;DHT22;29120;52.006;6.020;2022-12-20T16:54:19;10.60;99.90
43524;DHT22;29120;52.006;6.020;2022-12-20T16:56:45;10.60;99.90
43524;DHT22;29120;52.006;6.020;2022-12-20T16:59:19;10.60;99.90
43524;DHT22;29120;52.006;6.020;2022-12-20T17:01:44;10.60;99.90
43524;DHT22;29120;52.006;6.020;2022-12-20T17:04:14;10.60;99.90
43524;DHT22;29120;52.006;6.020;2022-12-20T17:06:40;10.60;99.90